createdAt,value
2019-03-28T00:01:19.858Z,81.83
2019-03-28T00:03:48.082Z,81.27
2019-03-28T00:06:16.585Z,83.03
2019-03-28T00:08:45.088Z,83.47
2019-03-28T00:11:13.403Z,82.23
2019-03-28T00:13:41.886Z,85.60
2019-03-28T00:16:10.454Z,82.17
2019-03-28T00:18:38.783Z,82.30
2019-03-28T00:21:07.257Z,80.97
2019-03-28T00:23:54.040Z,84.40
2019-03-28T00:26:30.023Z,85.40
2019-03-28T00:28:52.722Z,84.43
2019-03-28T00:31:21.202Z,87.50
2019-03-28T00:33:49.631Z,83.60
2019-03-28T00:36:19.831Z,82.70
2019-03-28T00:38:50.130Z,85.17
2019-03-28T00:41:18.662Z,85.03
2019-03-28T00:43:46.841Z,83.40
2019-03-28T00:46:15.074Z,82.53
2019-03-28T00:48:43.247Z,86.00
2019-03-28T00:51:11.735Z,83.27
2019-03-28T00:53:40.276Z,83.67
2019-03-28T00:56:08.466Z,82.17
2019-03-28T00:58:36.706Z,85.30
2019-03-28T01:01:05.307Z,83.07
2019-03-28T01:03:33.525Z,83.83
2019-03-28T01:06:01.778Z,84.90
2019-03-28T01:08:30.327Z,83.13
2019-03-28T01:10:58.816Z,84.83
2019-03-28T01:13:27.307Z,87.47
2019-03-28T01:15:55.604Z,82.53
2019-03-28T01:18:23.861Z,83.07
2019-03-28T01:20:55.038Z,82.77
2019-03-28T01:23:23.274Z,82.93
2019-03-28T01:25:51.757Z,85.10
2019-03-28T01:28:20.255Z,84.77
2019-03-28T01:30:48.792Z,81.17
2019-03-28T01:33:17.048Z,83.83
2019-03-28T01:35:45.538Z,83.47
2019-03-28T01:38:13.785Z,83.60
2019-03-28T01:40:42.226Z,84.43
2019-03-28T01:43:10.399Z,84.23
2019-03-28T01:45:38.736Z,81.33
2019-03-28T01:48:07.164Z,85.00
2019-03-28T01:50:35.656Z,81.93
2019-03-28T01:53:03.954Z,81.87
2019-03-28T01:55:32.153Z,82.07
2019-03-28T01:58:00.638Z,84.27
2019-03-28T02:00:28.881Z,83.33
2019-03-28T02:02:57.362Z,82.57
2019-03-28T02:05:25.612Z,87.33
2019-03-28T02:07:53.848Z,85.87
2019-03-28T02:10:22.022Z,82.97
2019-03-28T02:12:50.585Z,83.97
2019-03-28T02:15:18.878Z,83.50
2019-03-28T02:17:47.048Z,83.70
2019-03-28T02:20:15.228Z,84.77
2019-03-28T02:22:43.774Z,83.03
2019-03-28T02:25:12.258Z,83.60
2019-03-28T02:27:40.528Z,113.90
2019-03-28T02:30:08.998Z,85.87
2019-03-28T02:32:37.425Z,147.33
2019-03-28T02:35:06.068Z,87.30
2019-03-28T02:37:34.371Z,83.70
2019-03-28T02:40:02.935Z,82.47
2019-03-28T02:42:31.340Z,81.97
2019-03-28T02:44:59.578Z,83.40
2019-03-28T02:47:27.739Z,83.03
2019-03-28T02:49:56.145Z,81.73
2019-03-28T02:52:24.527Z,83.37
2019-03-28T02:54:52.703Z,81.53
2019-03-28T02:57:20.942Z,83.17
2019-03-28T02:59:49.182Z,82.50
2019-03-28T03:02:17.792Z,81.97
2019-03-28T03:04:46.202Z,81.47
2019-03-28T03:07:14.468Z,82.27
2019-03-28T03:09:42.642Z,82.87
2019-03-28T03:12:11.204Z,82.23
2019-03-28T03:14:39.756Z,87.03
2019-03-28T03:17:07.946Z,82.33
2019-03-28T03:19:36.114Z,82.17
2019-03-28T03:22:04.651Z,80.60
2019-03-28T03:24:33.150Z,83.83
2019-03-28T03:27:01.405Z,83.20
2019-03-28T03:29:29.698Z,82.43
2019-03-28T03:31:58.218Z,84.23
2019-03-28T03:34:26.622Z,81.20
2019-03-28T03:36:54.999Z,84.87
2019-03-28T03:39:23.169Z,85.47
2019-03-28T03:41:51.577Z,82.80
2019-03-28T03:44:19.902Z,81.07
2019-03-28T03:46:48.460Z,85.30
2019-03-28T03:49:16.715Z,83.87
2019-03-28T03:51:46.657Z,82.93
2019-03-28T03:54:14.973Z,83.93
2019-03-28T03:56:43.456Z,85.57
2019-03-28T03:59:12.134Z,82.63
2019-03-28T04:01:40.431Z,84.30
2019-03-28T04:04:09.028Z,83.77
2019-03-28T04:06:37.743Z,83.53
2019-03-28T04:09:06.405Z,85.73
2019-03-28T04:11:34.756Z,81.90
2019-03-28T04:14:04.270Z,81.80
2019-03-28T04:16:32.787Z,85.27
2019-03-28T04:19:01.070Z,109.50
2019-03-28T04:21:29.408Z,120.40
2019-03-28T04:23:57.828Z,108.23
2019-03-28T04:26:27.067Z,85.93
2019-03-28T04:28:55.543Z,87.03
2019-03-28T04:31:23.888Z,123.67
2019-03-28T04:33:52.270Z,98.13
2019-03-28T04:36:21.334Z,101.97
2019-03-28T04:38:50.543Z,84.63
2019-03-28T04:41:19.382Z,84.90
2019-03-28T04:43:47.796Z,83.83
2019-03-28T04:46:17.343Z,83.50
2019-03-28T04:48:45.694Z,89.33
2019-03-28T04:51:14.267Z,117.43
2019-03-28T04:53:42.792Z,157.13
2019-03-28T04:56:11.064Z,114.73
2019-03-28T04:58:44.757Z,111.93
2019-03-28T05:01:09.426Z,83.40
2019-03-28T05:03:37.946Z,110.40
2019-03-28T05:06:06.608Z,88.40
2019-03-28T05:08:34.951Z,120.07
2019-03-28T05:11:03.333Z,114.53
2019-03-28T05:13:32.054Z,83.27
2019-03-28T05:16:00.714Z,83.37
2019-03-28T05:18:29.131Z,127.57
2019-03-28T05:20:57.782Z,116.77
2019-03-28T05:23:26.463Z,125.80
2019-03-28T05:25:54.808Z,117.83
2019-03-28T05:28:23.386Z,88.30
2019-03-28T05:30:51.974Z,96.00
2019-03-28T05:33:20.259Z,103.20
2019-03-28T05:35:48.694Z,104.20
2019-03-28T05:38:17.364Z,113.27
2019-03-28T05:40:45.646Z,98.07
2019-03-28T05:43:14.060Z,123.63
2019-03-28T05:45:42.420Z,122.93
2019-03-28T05:48:11.987Z,88.07
2019-03-28T05:50:40.390Z,97.77
2019-03-28T05:53:08.925Z,97.07
2019-03-28T05:55:37.394Z,100.63
2019-03-28T05:58:05.639Z,83.37
2019-03-28T06:00:33.897Z,107.23
2019-03-28T06:03:02.149Z,116.40
2019-03-28T06:05:30.624Z,122.53
2019-03-28T06:07:59.118Z,123.80
2019-03-28T06:10:27.358Z,105.03
2019-03-28T06:12:56.068Z,104.00
2019-03-28T06:15:24.495Z,146.70
2019-03-28T06:17:53.046Z,138.87
2019-03-28T06:20:21.368Z,143.47
2019-03-28T06:22:49.849Z,129.83
2019-03-28T06:25:18.120Z,101.47
2019-03-28T06:27:46.648Z,132.23
2019-03-28T06:30:14.901Z,140.20
2019-03-28T06:32:43.628Z,125.93
2019-03-28T06:35:12.561Z,118.67
2019-03-28T06:37:40.777Z,133.80
2019-03-28T06:40:09.134Z,118.87
2019-03-28T06:42:37.438Z,122.07
2019-03-28T06:45:08.993Z,83.00
2019-03-28T06:47:37.179Z,85.10
2019-03-28T06:50:07.226Z,92.97
2019-03-28T06:52:35.478Z,89.53
2019-03-28T06:55:04.344Z,85.10
2019-03-28T06:57:32.898Z,89.27
2019-03-28T07:00:01.456Z,87.07
2019-03-28T07:02:29.631Z,86.90
2019-03-28T07:04:57.937Z,86.60
2019-03-28T07:07:26.181Z,90.37
2019-03-28T07:09:54.674Z,100.80
2019-03-28T07:12:22.927Z,85.03
2019-03-28T07:14:51.101Z,95.40
2019-03-28T07:17:19.392Z,120.43
2019-03-28T07:19:47.833Z,231.97
2019-03-28T07:22:16.314Z,8.70
2019-03-28T07:24:44.489Z,112.77
2019-03-28T07:27:12.797Z,97.53
2019-03-28T07:29:50.836Z,98.43
2019-03-28T07:32:11.648Z,100.73
2019-03-28T07:34:40.342Z,173.37
2019-03-28T07:37:08.921Z,101.17
2019-03-28T07:39:37.546Z,81.63
2019-03-28T07:42:06.093Z,14.90
2019-03-28T07:44:37.403Z,52.27
2019-03-28T07:47:04.782Z,95.50
2019-03-28T07:49:33.336Z,99.93
2019-03-28T07:52:02.877Z,138.47
2019-03-28T07:54:31.366Z,95.73
2019-03-28T07:56:59.979Z,105.10
2019-03-28T07:59:28.469Z,98.33
2019-03-28T08:01:56.970Z,95.47
2019-03-28T08:04:25.524Z,109.57
2019-03-28T08:06:54.103Z,104.13
2019-03-28T08:09:35.790Z,99.33
2019-03-28T08:11:52.987Z,108.10
2019-03-28T08:14:21.498Z,103.23
2019-03-28T08:16:50.083Z,151.13
2019-03-28T08:19:18.632Z,119.47
2019-03-28T08:21:47.131Z,135.87
2019-03-28T08:24:15.705Z,101.43
2019-03-28T08:26:44.317Z,143.40
2019-03-28T08:29:12.826Z,115.53
2019-03-28T08:31:42.961Z,144.07
2019-03-28T08:34:11.591Z,98.90
2019-03-28T08:36:40.005Z,108.30
2019-03-28T08:39:08.505Z,116.80
2019-03-28T08:41:37.059Z,113.43
2019-03-28T08:44:07.284Z,106.20
2019-03-28T08:46:35.683Z,97.57
2019-03-28T08:49:04.315Z,123.17
2019-03-28T08:51:32.879Z,100.63
2019-03-28T08:54:01.334Z,100.47
2019-03-28T08:56:29.878Z,99.33
2019-03-28T08:58:58.441Z,93.43
2019-03-28T09:01:27.601Z,118.67
2019-03-28T09:03:56.162Z,86.67
2019-03-28T09:06:24.580Z,54.63
2019-03-28T09:08:53.175Z,10.97
2019-03-28T09:11:21.767Z,9.43
2019-03-28T09:13:50.217Z,9.30
2019-03-28T09:16:18.614Z,12.57
2019-03-28T09:18:47.140Z,11.33
2019-03-28T09:21:15.649Z,9.87
2019-03-28T09:23:44.123Z,17.17
2019-03-28T09:26:12.828Z,11.37
2019-03-28T09:28:41.366Z,57.47
2019-03-28T09:31:19.737Z,67.00
2019-03-28T09:33:40.880Z,79.80
2019-03-28T09:36:09.963Z,64.10
2019-03-28T09:38:38.606Z,86.47
2019-03-28T09:41:07.135Z,57.43
2019-03-28T09:43:35.618Z,63.80
2019-03-28T09:46:04.026Z,10.00
2019-03-28T09:48:32.581Z,25.30
2019-03-28T09:51:01.138Z,11.90
2019-03-28T09:53:29.763Z,10.87
2019-03-28T09:55:58.317Z,10.20
2019-03-28T09:58:26.883Z,8.57
2019-03-28T10:01:02.839Z,9.43
2019-03-28T10:03:25.761Z,9.33
2019-03-28T10:05:54.553Z,8.90
2019-03-28T10:08:23.279Z,7.47
2019-03-28T10:10:51.960Z,8.50
2019-03-28T10:13:20.609Z,9.03
2019-03-28T10:15:49.086Z,8.67
2019-03-28T10:18:17.727Z,8.57
2019-03-28T10:20:46.256Z,8.90
2019-03-28T10:23:14.836Z,7.43
2019-03-28T10:25:43.460Z,8.13
2019-03-28T10:28:12.032Z,7.73
2019-03-28T10:30:42.897Z,7.20
2019-03-28T10:33:11.480Z,5.77
2019-03-28T10:35:40.130Z,5.33
2019-03-28T10:38:08.709Z,5.97
2019-03-28T10:40:37.398Z,5.13
2019-03-28T10:43:06.022Z,4.80
2019-03-28T10:45:34.724Z,6.70
2019-03-28T10:48:03.346Z,6.90
2019-03-28T10:50:40.784Z,5.40
2019-03-28T10:53:02.184Z,5.53
2019-03-28T10:55:30.800Z,4.10
2019-03-28T10:58:00.399Z,21.33
2019-03-28T11:00:28.961Z,5.33
2019-03-28T11:02:57.772Z,5.00
2019-03-28T11:05:26.338Z,4.53
2019-03-28T11:07:54.923Z,7.87
2019-03-28T11:10:23.619Z,6.20
2019-03-28T11:12:52.166Z,5.33
2019-03-28T11:15:20.719Z,5.33
2019-03-28T11:17:49.401Z,5.40
2019-03-28T11:20:18.048Z,12.23
2019-03-28T11:22:46.531Z,5.73
2019-03-28T11:25:15.136Z,5.27
2019-03-28T11:27:43.702Z,5.40
2019-03-28T11:30:12.261Z,5.17
2019-03-28T11:32:40.806Z,4.23
2019-03-28T11:35:09.353Z,3.80
2019-03-28T11:37:37.845Z,4.73
2019-03-28T11:40:09.642Z,4.40
2019-03-28T11:42:38.279Z,5.10
2019-03-28T11:45:09.496Z,5.40
2019-03-28T11:47:38.122Z,5.00
2019-03-28T11:50:08.066Z,4.30
2019-03-28T11:52:36.784Z,4.87
2019-03-28T11:55:07.298Z,3.73
2019-03-28T11:57:36.823Z,4.47
2019-03-28T12:00:12.705Z,4.00
2019-03-28T12:02:41.334Z,4.50
2019-03-28T12:05:10.780Z,4.77
2019-03-28T12:07:39.461Z,4.33
2019-03-28T12:10:10.326Z,4.13
2019-03-28T12:12:38.992Z,4.07
2019-03-28T12:15:07.845Z,3.87
2019-03-28T12:17:36.391Z,4.90
2019-03-28T12:20:09.542Z,5.77
2019-03-28T12:22:38.054Z,5.77
2019-03-28T12:25:06.686Z,5.50
2019-03-28T12:27:35.307Z,5.10
2019-03-28T12:30:05.876Z,5.67
2019-03-28T12:32:34.294Z,35.93
2019-03-28T12:35:02.806Z,26.07
2019-03-28T12:37:31.434Z,6.03
2019-03-28T12:40:00.208Z,98.17
2019-03-28T12:42:28.937Z,63.60
2019-03-28T12:44:58.884Z,4.40
2019-03-28T12:47:41.287Z,4.13
2019-03-28T12:49:57.742Z,4.53
2019-03-28T12:52:29.596Z,4.17
2019-03-28T12:54:56.685Z,5.73
2019-03-28T12:57:25.369Z,5.00
2019-03-28T12:59:54.019Z,4.70
2019-03-28T13:02:30.183Z,4.17
2019-03-28T13:04:53.914Z,4.47
2019-03-28T13:07:22.564Z,4.90
2019-03-28T13:09:51.131Z,6.03
2019-03-28T13:12:19.779Z,4.73
2019-03-28T13:14:48.754Z,4.53
2019-03-28T13:17:17.277Z,5.20
2019-03-28T13:19:46.003Z,4.40
2019-03-28T13:22:14.735Z,5.57
2019-03-28T13:24:43.291Z,5.00
2019-03-28T13:27:13.424Z,5.67
2019-03-28T13:29:42.103Z,4.40
2019-03-28T13:32:10.779Z,4.30
2019-03-28T13:34:39.398Z,4.67
2019-03-28T13:37:08.103Z,3.07
2019-03-28T13:39:36.633Z,4.13
2019-03-28T13:42:05.180Z,5.17
2019-03-28T13:44:33.796Z,6.47
2019-03-28T13:47:02.574Z,4.37
2019-03-28T13:49:31.134Z,3.83
2019-03-28T13:51:59.680Z,4.67
2019-03-28T13:54:28.250Z,3.63
2019-03-28T13:56:56.866Z,4.43
2019-03-28T13:59:25.614Z,5.43
2019-03-28T14:01:54.175Z,5.37
2019-03-28T14:04:23.694Z,4.07
2019-03-28T14:06:52.767Z,4.37
2019-03-28T14:09:23.272Z,4.40
2019-03-28T14:11:51.667Z,4.63
2019-03-28T14:14:20.322Z,4.03
2019-03-28T14:16:49.788Z,4.07
2019-03-28T14:19:19.168Z,5.00
2019-03-28T14:21:47.781Z,4.67
2019-03-28T14:24:16.340Z,3.77
2019-03-28T14:26:44.900Z,3.60
2019-03-28T14:29:13.448Z,4.60
2019-03-28T14:31:42.000Z,3.90
2019-03-28T14:34:10.551Z,6.47
2019-03-28T14:36:39.168Z,4.47
2019-03-28T14:39:07.945Z,3.80
2019-03-28T14:41:36.534Z,3.57
2019-03-28T14:44:05.146Z,3.93
2019-03-28T14:46:33.774Z,3.37
2019-03-28T14:49:02.391Z,3.80
2019-03-28T14:51:30.963Z,5.30
2019-03-28T14:53:59.450Z,5.63
2019-03-28T14:56:28.024Z,4.37
2019-03-28T14:58:56.549Z,4.13
2019-03-28T15:01:26.828Z,4.07
2019-03-28T15:03:55.257Z,5.20
2019-03-28T15:06:24.915Z,4.73
2019-03-28T15:08:53.885Z,5.50
2019-03-28T15:11:22.389Z,5.10
2019-03-28T15:13:51.019Z,5.57
2019-03-28T15:16:19.578Z,32.57
2019-03-28T15:18:48.156Z,7.63
2019-03-28T15:21:16.983Z,6.13
2019-03-28T15:23:45.543Z,5.50
2019-03-28T15:26:14.037Z,6.10
2019-03-28T15:28:42.721Z,6.40
2019-03-28T15:31:11.279Z,4.60
2019-03-28T15:33:40.211Z,4.43
2019-03-28T15:36:08.965Z,5.63
2019-03-28T15:41:15.992Z,85.17
2019-03-28T15:43:44.467Z,114.27
2019-03-28T15:46:12.771Z,133.00
2019-03-28T15:48:41.124Z,189.37
2019-03-28T15:51:09.789Z,109.40
2019-03-28T15:53:38.501Z,95.17
2019-03-28T15:56:07.162Z,89.60
2019-03-28T15:58:35.484Z,106.57
2019-03-28T16:01:04.197Z,125.23
2019-03-28T16:03:32.614Z,107.70
2019-03-28T16:06:01.189Z,110.53
2019-03-28T16:08:29.844Z,115.40
2019-03-28T16:10:58.596Z,101.47
2019-03-28T16:13:27.187Z,105.87
2019-03-28T16:15:55.747Z,100.77
2019-03-28T16:18:24.313Z,104.67
2019-03-28T16:20:53.527Z,134.20
2019-03-28T16:23:22.212Z,161.97
2019-03-28T16:25:50.525Z,158.77
2019-03-28T16:28:19.182Z,149.30
2019-03-28T16:30:47.864Z,129.37
2019-03-28T16:33:16.726Z,109.87
2019-03-28T16:35:45.289Z,95.87
2019-03-28T16:38:13.863Z,98.27
2019-03-28T16:40:42.600Z,134.10
2019-03-28T16:43:11.661Z,96.17
2019-03-28T16:45:40.282Z,94.60
2019-03-28T16:48:09.001Z,93.27
2019-03-28T16:50:37.673Z,94.97
2019-03-28T16:53:06.289Z,96.10
2019-03-28T16:55:34.974Z,91.60
2019-03-28T16:58:03.560Z,131.70
2019-03-28T17:00:39.568Z,150.63
2019-03-28T17:03:08.249Z,136.53
2019-03-28T17:05:36.938Z,99.93
2019-03-28T17:08:06.660Z,103.50
2019-03-28T17:10:44.251Z,92.50
2019-03-28T17:13:13.039Z,96.40
2019-03-28T17:15:41.691Z,111.80
2019-03-28T17:18:10.199Z,147.80
2019-03-28T17:20:38.868Z,143.23
2019-03-28T17:23:07.512Z,104.67
2019-03-28T17:25:36.093Z,73.67
2019-03-28T17:28:04.794Z,77.40
2019-03-28T17:30:33.294Z,147.97
2019-03-28T17:33:02.321Z,67.53
2019-03-28T17:35:30.961Z,103.83
2019-03-28T17:37:59.570Z,90.03
2019-03-28T17:40:28.311Z,58.30
2019-03-28T17:42:57.122Z,80.03
2019-03-28T17:45:25.946Z,47.50
2019-03-28T17:47:54.758Z,20.93
2019-03-28T17:50:23.521Z,40.27
2019-03-28T17:52:52.140Z,60.33
2019-03-28T17:55:20.812Z,30.73
2019-03-28T17:57:49.629Z,14.67
2019-03-28T18:00:18.325Z,22.83
2019-03-28T18:02:47.129Z,98.60
2019-03-28T18:05:16.048Z,87.30
2019-03-28T18:07:44.878Z,92.73
2019-03-28T18:10:13.519Z,96.10
2019-03-28T18:12:42.243Z,4.43
2019-03-28T18:15:11.556Z,3.90
2019-03-28T18:17:40.261Z,5.47
2019-03-28T18:20:09.304Z,5.43
2019-03-28T18:22:38.013Z,5.97
2019-03-28T18:25:07.917Z,5.83
2019-03-28T18:27:37.319Z,84.93
2019-03-28T18:30:09.107Z,82.00
2019-03-28T18:32:39.547Z,133.13
2019-03-28T18:35:08.523Z,87.50
2019-03-28T18:37:37.335Z,96.00
2019-03-28T18:40:06.368Z,95.43
2019-03-28T18:42:35.231Z,179.47
2019-03-28T18:45:04.638Z,106.30
2019-03-28T18:47:33.333Z,128.60
2019-03-28T18:50:03.845Z,97.50
2019-03-28T18:52:32.257Z,102.57
2019-03-28T18:55:00.691Z,96.57
2019-03-28T18:57:29.133Z,108.10
2019-03-28T18:59:58.686Z,92.77
2019-03-28T19:02:27.128Z,141.13
2019-03-28T19:04:55.930Z,155.43
2019-03-28T19:07:25.252Z,165.50
2019-03-28T19:09:55.243Z,107.67
2019-03-28T19:12:23.683Z,107.10
2019-03-28T19:14:52.043Z,104.27
2019-03-28T19:17:20.390Z,93.57
2019-03-28T19:19:48.828Z,97.43
2019-03-28T19:22:17.623Z,113.70
2019-03-28T19:24:46.304Z,93.77
2019-03-28T19:27:15.585Z,94.07
2019-03-28T19:29:43.890Z,94.67
2019-03-28T19:32:12.203Z,93.93
2019-03-28T19:34:40.544Z,146.73
2019-03-28T19:37:08.911Z,97.43
2019-03-28T19:39:37.235Z,108.27
2019-03-28T19:42:05.657Z,428.07
2019-03-28T19:44:34.152Z,48.53
2019-03-28T19:47:02.838Z,10.47
2019-03-28T19:49:31.538Z,10.63
2019-03-28T19:52:00.346Z,9.00
2019-03-28T19:54:28.855Z,12.43
2019-03-28T19:56:57.606Z,10.17
2019-03-28T19:59:26.276Z,8.80
2019-03-28T20:01:54.943Z,11.07
2019-03-28T20:04:23.659Z,12.60
2019-03-28T20:06:53.857Z,13.07
2019-03-28T20:09:24.120Z,15.27
2019-03-28T20:11:53.022Z,14.27
2019-03-28T20:14:21.699Z,15.53
2019-03-28T20:16:50.396Z,14.50
2019-03-28T20:19:19.095Z,14.20
2019-03-28T20:21:47.655Z,14.57
2019-03-28T20:24:16.231Z,14.70
2019-03-28T20:26:47.177Z,15.20
2019-03-28T20:29:16.012Z,15.00
2019-03-28T20:31:45.152Z,14.83
2019-03-28T20:34:16.128Z,14.70
2019-03-28T20:36:44.716Z,13.97
2019-03-28T20:39:13.287Z,13.70
2019-03-28T20:41:43.133Z,14.00
2019-03-28T20:44:11.940Z,15.10
2019-03-28T20:46:41.000Z,13.53
2019-03-28T20:49:09.797Z,14.60
2019-03-28T20:51:38.445Z,15.30
2019-03-28T20:54:07.872Z,13.70
2019-03-28T20:56:36.720Z,14.57
2019-03-28T20:59:05.372Z,13.67
2019-03-28T21:01:33.943Z,13.90
2019-03-28T21:04:02.600Z,13.17
2019-03-28T21:06:31.094Z,14.47
2019-03-28T21:08:59.663Z,14.53
2019-03-28T21:11:29.634Z,13.93
2019-03-28T21:13:58.433Z,13.70
2019-03-28T21:16:26.986Z,14.23
2019-03-28T21:18:55.687Z,14.50
2019-03-28T21:21:24.249Z,15.07
2019-03-28T21:23:52.805Z,15.17
2019-03-28T21:26:21.994Z,14.30
2019-03-28T21:28:51.125Z,12.67
2019-03-28T21:31:19.955Z,13.03
2019-03-28T21:33:48.718Z,12.97
2019-03-28T21:36:28.879Z,14.77
2019-03-28T21:38:49.180Z,14.93
2019-03-28T21:41:17.832Z,15.97
2019-03-28T21:43:48.065Z,17.13
2019-03-28T21:46:16.702Z,17.83
2019-03-28T21:48:45.460Z,19.90
2019-03-28T21:51:14.687Z,19.93
2019-03-28T21:53:45.183Z,19.67
2019-03-28T21:56:14.448Z,18.93
2019-03-28T21:58:43.011Z,20.53
2019-03-28T22:01:11.658Z,19.50
2019-03-28T22:03:40.373Z,19.37
2019-03-28T22:06:09.024Z,18.73
2019-03-28T22:08:38.464Z,21.10
2019-03-28T22:11:07.818Z,19.27
2019-03-28T22:13:36.989Z,17.93
2019-03-28T22:16:07.810Z,17.50
2019-03-28T22:18:36.626Z,16.93
2019-03-28T22:21:05.131Z,17.33
2019-03-28T22:23:33.684Z,17.47
2019-03-28T22:26:02.280Z,17.17
2019-03-28T22:28:30.762Z,17.77
2019-03-28T22:30:59.406Z,17.53
2019-03-28T22:33:28.034Z,17.00
2019-03-28T22:35:56.548Z,19.33
2019-03-28T22:38:25.033Z,20.67
2019-03-28T22:40:53.998Z,23.03
2019-03-28T22:43:22.491Z,54.10
2019-03-28T22:45:51.057Z,80.90
2019-03-28T22:48:19.687Z,17.87
2019-03-28T22:50:48.169Z,19.17
2019-03-28T22:53:17.073Z,104.97
2019-03-28T22:55:45.699Z,120.13
2019-03-28T22:58:14.661Z,103.97
2019-03-28T23:00:47.854Z,101.50
2019-03-28T23:03:17.238Z,162.07
2019-03-28T23:05:45.744Z,148.93
2019-03-28T23:08:14.253Z,122.63
2019-03-28T23:10:42.790Z,99.47
2019-03-28T23:13:11.213Z,98.63
2019-03-28T23:15:39.708Z,175.83
2019-03-28T23:18:08.316Z,113.17
2019-03-28T23:20:36.828Z,13.97
2019-03-28T23:23:05.304Z,12.43
2019-03-28T23:25:37.060Z,12.80
2019-03-28T23:28:05.780Z,12.47
2019-03-28T23:30:34.260Z,12.47
2019-03-28T23:33:02.815Z,13.53
2019-03-28T23:35:31.371Z,14.53
2019-03-28T23:37:59.916Z,12.03
2019-03-28T23:40:29.921Z,13.70
2019-03-28T23:42:58.748Z,14.23
2019-03-28T23:45:27.345Z,13.80
2019-03-28T23:47:55.929Z,13.07
2019-03-28T23:50:24.652Z,12.77
2019-03-28T23:52:53.142Z,12.50
2019-03-28T23:55:21.757Z,12.70
2019-03-28T23:57:50.311Z,13.23
